createdAt,value
2023-04-17T00:09:53.350Z,7.54
2023-04-17T00:19:55.549Z,7.49
2023-04-17T00:29:58.038Z,7.47
2023-04-17T00:40:00.317Z,7.46
2023-04-17T00:50:03.194Z,7.46
2023-04-17T01:00:06.501Z,7.45
2023-04-17T01:10:09.451Z,7.44
2023-04-17T01:20:12.256Z,7.44
2023-04-17T01:30:14.678Z,7.45
2023-04-17T01:40:16.898Z,7.45
2023-04-17T01:50:19.102Z,7.44
2023-04-17T02:00:21.473Z,7.45
2023-04-17T02:10:23.596Z,7.47
2023-04-17T02:20:26.050Z,7.54
2023-04-17T02:30:28.466Z,7.54
2023-04-17T02:40:30.640Z,7.55
2023-04-17T02:50:33.056Z,7.56
2023-04-17T03:00:35.309Z,7.56
2023-04-17T03:10:37.705Z,7.55
2023-04-17T03:20:39.870Z,7.55
2023-04-17T03:30:42.166Z,7.58
2023-04-17T03:40:44.657Z,7.58
2023-04-17T03:50:46.938Z,7.58
2023-04-17T04:00:50.536Z,7.62
2023-04-17T04:10:52.683Z,7.64
2023-04-17T04:20:54.811Z,7.65
2023-04-17T04:30:59.079Z,7.63
2023-04-17T04:41:06.628Z,7.62
2023-04-17T04:51:09.100Z,7.68
2023-04-17T05:01:12.623Z,7.63
2023-04-17T05:11:15.584Z,7.56
2023-04-17T05:21:17.875Z,7.60
2023-04-17T05:31:21.122Z,7.67
2023-04-17T05:41:23.540Z,7.66
2023-04-17T05:51:26.617Z,7.72
2023-04-17T06:01:30.355Z,7.80
2023-04-17T06:11:32.832Z,7.82
2023-04-17T06:21:35.152Z,7.90
2023-04-17T06:31:37.660Z,8.02
2023-04-17T06:41:40.049Z,8.12
2023-04-17T06:51:48.139Z,8.19
2023-04-17T07:01:51.017Z,8.22
2023-04-17T07:11:53.561Z,8.27
2023-04-17T07:21:56.824Z,8.47
2023-04-17T07:31:59.438Z,8.59
2023-04-17T07:42:06.689Z,8.53
2023-04-17T07:52:09.176Z,8.64
2023-04-17T08:02:11.835Z,8.81
2023-04-17T08:12:14.333Z,9.15
2023-04-17T08:22:16.893Z,9.49
2023-04-17T08:32:20.487Z,9.41
2023-04-17T08:42:23.192Z,9.44
2023-04-17T08:52:25.575Z,9.64
2023-04-17T09:02:28.016Z,10.11
2023-04-17T09:12:30.474Z,10.74
2023-04-17T09:22:33.235Z,10.75
2023-04-17T09:32:35.886Z,11.04
2023-04-17T09:42:54.110Z,10.84
2023-04-17T09:52:56.871Z,10.66
2023-04-17T10:02:59.846Z,10.70
2023-04-17T10:13:03.699Z,11.10
2023-04-17T10:23:26.343Z,11.34
2023-04-17T10:33:29.082Z,11.12
2023-04-17T10:43:32.154Z,11.26
2023-04-17T10:53:41.276Z,11.61
2023-04-17T11:03:43.737Z,12.09
2023-04-17T11:13:48.228Z,12.38
2023-04-17T11:23:52.803Z,12.65
2023-04-17T11:33:55.357Z,12.77
2023-04-17T11:43:57.894Z,12.32
2023-04-17T11:54:00.761Z,12.74
2023-04-17T12:04:20.359Z,14.03
2023-04-17T12:14:25.229Z,14.96
2023-04-17T12:24:29.093Z,14.30
2023-04-17T12:34:31.746Z,14.09
2023-04-17T12:44:34.368Z,14.26
2023-04-17T12:54:36.723Z,14.39
2023-04-17T13:04:39.166Z,15.37
2023-04-17T13:14:42.297Z,15.31
2023-04-17T13:24:45.035Z,15.77
2023-04-17T13:34:47.774Z,14.97
2023-04-17T13:44:50.333Z,14.73
2023-04-17T13:54:52.648Z,14.74
2023-04-17T14:04:55.283Z,14.89
2023-04-17T14:14:58.333Z,15.19
2023-04-17T14:25:00.801Z,16.04
2023-04-17T14:35:03.627Z,15.51
2023-04-17T14:45:06.510Z,15.72
2023-04-17T14:55:09.331Z,15.98
2023-04-17T15:05:11.994Z,15.78
2023-04-17T15:15:14.771Z,15.35
2023-04-17T15:25:17.090Z,13.90
2023-04-17T15:35:19.526Z,12.91
2023-04-17T15:45:22.244Z,13.02
2023-04-17T15:55:24.967Z,13.60
2023-04-17T16:05:27.870Z,14.26
2023-04-17T16:15:30.798Z,14.71
2023-04-17T16:25:33.182Z,13.27
2023-04-17T16:35:36.710Z,12.27
2023-04-17T16:45:39.231Z,12.14
2023-04-17T16:55:41.873Z,12.10
2023-04-17T17:05:44.644Z,11.47
2023-04-17T17:15:47.047Z,11.25
2023-04-17T17:25:49.532Z,11.14
2023-04-17T17:35:51.875Z,11.19
2023-04-17T17:45:54.587Z,11.27
2023-04-17T17:55:57.950Z,11.10
2023-04-17T18:06:00.997Z,10.88
2023-04-17T18:16:03.869Z,10.43
2023-04-17T18:26:06.516Z,10.09
2023-04-17T18:36:09.254Z,9.90
2023-04-17T18:46:11.619Z,9.68
2023-04-17T18:56:15.430Z,9.32
2023-04-17T19:06:17.623Z,9.09
2023-04-17T19:16:20.226Z,8.88
2023-04-17T19:26:23.826Z,8.87
2023-04-17T19:36:27.751Z,8.88
2023-04-17T19:46:30.379Z,8.79
2023-04-17T19:56:32.709Z,8.77
2023-04-17T20:06:35.304Z,8.68
2023-04-17T20:16:37.559Z,8.48
2023-04-17T20:26:40.130Z,8.32
2023-04-17T20:36:42.309Z,8.06
2023-04-17T20:46:44.974Z,7.75
2023-04-17T20:56:47.561Z,7.45
2023-04-17T21:06:49.822Z,7.13
2023-04-17T21:16:54.862Z,6.83
2023-04-17T21:26:59.115Z,6.56
2023-04-17T21:37:05.200Z,6.47
2023-04-17T21:47:07.371Z,6.42
2023-04-17T21:57:09.885Z,6.21
2023-04-17T22:07:12.357Z,6.17
2023-04-17T22:17:15.237Z,6.07
2023-04-17T22:27:17.366Z,5.75
2023-04-17T22:37:19.600Z,5.56
2023-04-17T22:47:22.258Z,5.57
2023-04-17T22:57:24.456Z,5.49
2023-04-17T23:07:26.755Z,5.46
2023-04-17T23:17:29.038Z,5.53
2023-04-17T23:27:32.354Z,5.66
2023-04-17T23:37:34.561Z,5.82
2023-04-17T23:47:37.104Z,5.99
2023-04-17T23:57:39.144Z,6.02
